KECG/ECG METAR and TAF weather

Enter ICAO airport designator
Station Type Date Time Source
KECG METAR 2021/03/01 02:54 UTC NOAA

KECG 010254Z 20011KT 10SM CLR 19/16 A2995 RMK AO2 SLP140 T01940161 58013 $


Station Type Date Time Source
KECG Decoded METAR 2021/03/01 02:54 UTC NOAA

ELIZABETH CITY C/G REGN AIRPORT , NC, United States (KECG) 36-15N 076-10W 11M
Feb 28, 2021 - 09:54 PM EST / 2021.03.01 0254 UTC
Wind: from the SSW (200 degrees) at 13 MPH (11 KT):0
Visibility: 10 mile(s):0
Sky conditions: clear
Temperature: 66.9 F (19.4 C)
Dew Point: 61.0 F (16.1 C)
Relative Humidity: 81%
Pressure (altimeter): 29.95 in. Hg (1014 hPa)
Pressure tendency: 0.04 inches (1.3 hPa) lower than three hours ago
ob: KECG 010254Z 20011KT 10SM CLR 19/16 A2995 RMK AO2 SLP140 T01940161 58013
cycle: 3

Station Type Date Time Source
KECG TAF 2021/02/28 20:09 UTC NOAA

TAF KECG 282004Z 2820/0118 19008KT P6SM SCT150
FM010400 21012KT P6SM BKN150
FM011200 22014G22KT P6SM OVC050
FM011600 30014G22KT 5SM -RA SCT020 OVC035

Example: see airport list